sensor_id;sensor_type;location;lat;lon;timestamp;pressure;altitude;pressure_sealevel;temperature;humidity
36190;BME280;22232;50.914;13.858;2023-06-22T00:01:23;98137.16;;;20.85;100.00
36190;BME280;22232;50.914;13.858;2023-06-22T00:03:51;98130.63;;;20.87;100.00
36190;BME280;22232;50.914;13.858;2023-06-22T00:06:18;98127.31;;;20.90;100.00
36190;BME280;22232;50.914;13.858;2023-06-22T00:08:46;98121.38;;;20.88;100.00
36190;BME280;22232;50.914;13.858;2023-06-22T00:11:14;98117.66;;;20.83;100.00
36190;BME280;22232;50.914;13.858;2023-06-22T00:13:42;98122.50;;;20.87;100.00
36190;BME280;22232;50.914;13.858;2023-06-22T00:16:09;98120.00;;;20.90;100.00
36190;BME280;22232;50.914;13.858;2023-06-22T00:18:37;98129.50;;;20.88;100.00
36190;BME280;22232;50.914;13.858;2023-06-22T00:21:05;98133.69;;;20.80;100.00
36190;BME280;22232;50.914;13.858;2023-06-22T00:23:33;98140.22;;;20.79;100.00
36190;BME280;22232;50.914;13.858;2023-06-22T00:26:02;98148.09;;;20.75;100.00
36190;BME280;22232;50.914;13.858;2023-06-22T00:28:30;98153.50;;;20.75;100.00
36190;BME280;22232;50.914;13.858;2023-06-22T00:30:58;98151.69;;;20.71;100.00
36190;BME280;22232;50.914;13.858;2023-06-22T00:33:26;98150.13;;;20.65;100.00
36190;BME280;22232;50.914;13.858;2023-06-22T00:35:54;98150.66;;;20.67;100.00
36190;BME280;22232;50.914;13.858;2023-06-22T00:38:21;98146.63;;;20.64;100.00
36190;BME280;22232;50.914;13.858;2023-06-22T00:40:49;98150.69;;;20.61;100.00
36190;BME280;22232;50.914;13.858;2023-06-22T00:43:17;98149.59;;;20.62;100.00
36190;BME280;22232;50.914;13.858;2023-06-22T00:45:44;98145.63;;;20.55;100.00
36190;BME280;22232;50.914;13.858;2023-06-22T00:48:13;98147.81;;;20.48;100.00
36190;BME280;22232;50.914;13.858;2023-06-22T00:50:42;98149.44;;;20.49;100.00
36190;BME280;22232;50.914;13.858;2023-06-22T00:53:10;98145.41;;;20.46;100.00
36190;BME280;22232;50.914;13.858;2023-06-22T00:55:42;98148.13;;;20.46;100.00
36190;BME280;22232;50.914;13.858;2023-06-22T00:58:19;98149.78;;;20.42;100.00
36190;BME280;22232;50.914;13.858;2023-06-22T01:00:49;98146.81;;;20.38;100.00
36190;BME280;22232;50.914;13.858;2023-06-22T01:03:17;98137.31;;;20.41;100.00
36190;BME280;22232;50.914;13.858;2023-06-22T01:05:46;98141.91;;;20.46;100.00
36190;BME280;22232;50.914;13.858;2023-06-22T01:08:29;98138.66;;;20.44;100.00
36190;BME280;22232;50.914;13.858;2023-06-22T01:11:04;98139.47;;;20.44;100.00
36190;BME280;22232;50.914;13.858;2023-06-22T01:16:23;98136.47;;;20.46;100.00
36190;BME280;22232;50.914;13.858;2023-06-22T01:18:55;98142.97;;;20.45;100.00
36190;BME280;22232;50.914;13.858;2023-06-22T01:21:29;98140.25;;;20.45;100.00
36190;BME280;22232;50.914;13.858;2023-06-22T01:24:07;98138.13;;;20.42;100.00
36190;BME280;22232;50.914;13.858;2023-06-22T01:26:43;98143.84;;;20.40;100.00
36190;BME280;22232;50.914;13.858;2023-06-22T01:29:16;98137.66;;;20.34;100.00
36190;BME280;22232;50.914;13.858;2023-06-22T01:31:44;98141.19;;;20.35;100.00
36190;BME280;22232;50.914;13.858;2023-06-22T01:34:13;98147.69;;;20.34;100.00
36190;BME280;22232;50.914;13.858;2023-06-22T01:36:43;98143.66;;;20.31;100.00
36190;BME280;22232;50.914;13.858;2023-06-22T01:39:11;98155.28;;;20.32;100.00
36190;BME280;22232;50.914;13.858;2023-06-22T01:41:39;98145.00;;;20.34;100.00
36190;BME280;22232;50.914;13.858;2023-06-22T01:44:09;98141.72;;;20.37;100.00
36190;BME280;22232;50.914;13.858;2023-06-22T01:46:37;98140.03;;;20.41;100.00
36190;BME280;22232;50.914;13.858;2023-06-22T01:49:07;98131.34;;;20.44;100.00
36190;BME280;22232;50.914;13.858;2023-06-22T01:51:36;98138.13;;;20.42;100.00
36190;BME280;22232;50.914;13.858;2023-06-22T01:54:06;98136.88;;;20.34;100.00
36190;BME280;22232;50.914;13.858;2023-06-22T01:56:34;98133.06;;;20.35;100.00
36190;BME280;22232;50.914;13.858;2023-06-22T01:59:57;98128.56;;;20.25;100.00
36190;BME280;22232;50.914;13.858;2023-06-22T02:02:04;98137.81;;;20.19;100.00
36190;BME280;22232;50.914;13.858;2023-06-22T02:04:38;98131.94;;;20.12;100.00
36190;BME280;22232;50.914;13.858;2023-06-22T02:07:11;98130.63;;;20.04;100.00
36190;BME280;22232;50.914;13.858;2023-06-22T02:09:42;98130.94;;;20.03;100.00
36190;BME280;22232;50.914;13.858;2023-06-22T02:12:12;98128.78;;;20.00;100.00
36190;BME280;22232;50.914;13.858;2023-06-22T02:14:41;98120.41;;;19.96;100.00
36190;BME280;22232;50.914;13.858;2023-06-22T02:17:09;98124.44;;;19.99;100.00
36190;BME280;22232;50.914;13.858;2023-06-22T02:19:37;98125.22;;;20.04;100.00
36190;BME280;22232;50.914;13.858;2023-06-22T02:22:06;98129.06;;;19.98;100.00
36190;BME280;22232;50.914;13.858;2023-06-22T02:24:34;98118.81;;;19.95;100.00
36190;BME280;22232;50.914;13.858;2023-06-22T02:27:02;98127.78;;;19.90;100.00
36190;BME280;22232;50.914;13.858;2023-06-22T02:29:32;98128.84;;;19.89;100.00
36190;BME280;22232;50.914;13.858;2023-06-22T02:32:00;98131.63;;;19.84;100.00
36190;BME280;22232;50.914;13.858;2023-06-22T02:34:27;98125.16;;;19.80;100.00
36190;BME280;22232;50.914;13.858;2023-06-22T02:36:55;98130.00;;;19.83;100.00
36190;BME280;22232;50.914;13.858;2023-06-22T02:39:24;98122.66;;;19.84;100.00
36190;BME280;22232;50.914;13.858;2023-06-22T02:41:53;98126.25;;;19.79;100.00
36190;BME280;22232;50.914;13.858;2023-06-22T02:44:22;98122.44;;;19.80;100.00
36190;BME280;22232;50.914;13.858;2023-06-22T02:46:50;98128.66;;;19.81;100.00
36190;BME280;22232;50.914;13.858;2023-06-22T02:49:18;98126.78;;;19.81;100.00
36190;BME280;22232;50.914;13.858;2023-06-22T02:51:47;98135.97;;;19.80;100.00
36190;BME280;22232;50.914;13.858;2023-06-22T02:54:19;98128.41;;;19.77;100.00
36190;BME280;22232;50.914;13.858;2023-06-22T02:56:49;98131.66;;;19.79;100.00
36190;BME280;22232;50.914;13.858;2023-06-22T02:59:19;98133.00;;;19.82;100.00
36190;BME280;22232;50.914;13.858;2023-06-22T03:01:56;98130.19;;;19.92;100.00
36190;BME280;22232;50.914;13.858;2023-06-22T03:04:28;98139.00;;;20.08;100.00
36190;BME280;22232;50.914;13.858;2023-06-22T03:06:56;98140.22;;;20.21;100.00
36190;BME280;22232;50.914;13.858;2023-06-22T03:09:24;98141.00;;;20.26;100.00
36190;BME280;22232;50.914;13.858;2023-06-22T03:11:52;98140.38;;;20.34;100.00
36190;BME280;22232;50.914;13.858;2023-06-22T03:14:21;98129.72;;;20.43;100.00
36190;BME280;22232;50.914;13.858;2023-06-22T03:16:51;98126.19;;;20.72;100.00
36190;BME280;22232;50.914;13.858;2023-06-22T03:19:19;98126.13;;;21.01;100.00
36190;BME280;22232;50.914;13.858;2023-06-22T03:21:49;98123.25;;;21.11;100.00
36190;BME280;22232;50.914;13.858;2023-06-22T03:24:16;98117.34;;;21.28;100.00
36190;BME280;22232;50.914;13.858;2023-06-22T03:26:44;98114.66;;;21.47;100.00
36190;BME280;22232;50.914;13.858;2023-06-22T03:29:13;98111.72;;;21.62;100.00
36190;BME280;22232;50.914;13.858;2023-06-22T03:31:42;98099.28;;;21.75;100.00
36190;BME280;22232;50.914;13.858;2023-06-22T03:34:11;98102.09;;;22.03;100.00
36190;BME280;22232;50.914;13.858;2023-06-22T03:36:38;98098.56;;;22.35;100.00
36190;BME280;22232;50.914;13.858;2023-06-22T03:39:06;98100.88;;;22.69;100.00
36190;BME280;22232;50.914;13.858;2023-06-22T03:41:34;98090.91;;;22.92;100.00
36190;BME280;22232;50.914;13.858;2023-06-22T03:44:01;98096.00;;;23.21;100.00
36190;BME280;22232;50.914;13.858;2023-06-22T03:46:29;98094.22;;;23.53;100.00
36190;BME280;22232;50.914;13.858;2023-06-22T03:48:56;98097.28;;;23.74;100.00
36190;BME280;22232;50.914;13.858;2023-06-22T03:51:24;98095.53;;;24.00;100.00
36190;BME280;22232;50.914;13.858;2023-06-22T03:53:52;98090.88;;;24.01;100.00
36190;BME280;22232;50.914;13.858;2023-06-22T03:56:19;98090.34;;;24.21;100.00
36190;BME280;22232;50.914;13.858;2023-06-22T03:58:48;98096.19;;;24.37;100.00
36190;BME280;22232;50.914;13.858;2023-06-22T04:01:15;98090.50;;;24.47;99.45
36190;BME280;22232;50.914;13.858;2023-06-22T04:03:44;98093.28;;;24.56;97.78
36190;BME280;22232;50.914;13.858;2023-06-22T04:06:12;98096.69;;;24.39;95.12
36190;BME280;22232;50.914;13.858;2023-06-22T04:08:39;98093.91;;;24.31;99.79
36190;BME280;22232;50.914;13.858;2023-06-22T04:11:08;98104.38;;;24.68;98.17
36190;BME280;22232;50.914;13.858;2023-06-22T04:13:36;98110.25;;;25.02;96.40
36190;BME280;22232;50.914;13.858;2023-06-22T04:16:03;98119.47;;;25.40;89.22
36190;BME280;22232;50.914;13.858;2023-06-22T04:18:31;98120.28;;;25.67;87.84
36190;BME280;22232;50.914;13.858;2023-06-22T04:20:59;98119.53;;;25.84;86.59
36190;BME280;22232;50.914;13.858;2023-06-22T04:23:26;98113.69;;;26.12;80.84
36190;BME280;22232;50.914;13.858;2023-06-22T04:25:54;98104.97;;;26.18;82.04
36190;BME280;22232;50.914;13.858;2023-06-22T04:28:23;98110.28;;;26.23;82.64
36190;BME280;22232;50.914;13.858;2023-06-22T04:30:54;98113.44;;;26.43;79.69
36190;BME280;22232;50.914;13.858;2023-06-22T04:33:25;98111.16;;;26.53;83.37
36190;BME280;22232;50.914;13.858;2023-06-22T04:35:53;98108.47;;;26.74;80.39
36190;BME280;22232;50.914;13.858;2023-06-22T04:38:20;98112.69;;;27.02;75.97
36190;BME280;22232;50.914;13.858;2023-06-22T04:40:49;98109.47;;;27.50;73.28
36190;BME280;22232;50.914;13.858;2023-06-22T04:43:17;98115.31;;;28.03;72.74
36190;BME280;22232;50.914;13.858;2023-06-22T04:45:44;98113.16;;;28.08;81.81
36190;BME280;22232;50.914;13.858;2023-06-22T04:48:12;98118.97;;;28.40;78.64
36190;BME280;22232;50.914;13.858;2023-06-22T04:50:43;98125.66;;;28.76;70.89
36190;BME280;22232;50.914;13.858;2023-06-22T04:53:11;98141.00;;;29.14;65.61
36190;BME280;22232;50.914;13.858;2023-06-22T04:55:40;98137.06;;;29.39;62.41
36190;BME280;22232;50.914;13.858;2023-06-22T04:58:09;98150.69;;;29.36;62.40
36190;BME280;22232;50.914;13.858;2023-06-22T05:00:36;98155.72;;;28.72;67.41
36190;BME280;22232;50.914;13.858;2023-06-22T05:03:04;98152.31;;;28.30;69.39
36190;BME280;22232;50.914;13.858;2023-06-22T05:05:46;98166.47;;;27.57;73.25
36190;BME280;22232;50.914;13.858;2023-06-22T05:08:14;98171.09;;;26.76;84.39
36190;BME280;22232;50.914;13.858;2023-06-22T05:10:42;98179.72;;;26.31;81.80
36190;BME280;22232;50.914;13.858;2023-06-22T05:13:29;98193.41;;;25.79;87.86
36190;BME280;22232;50.914;13.858;2023-06-22T05:15:57;98201.31;;;25.72;90.07
36190;BME280;22232;50.914;13.858;2023-06-22T05:18:31;98209.00;;;25.61;92.96
36190;BME280;22232;50.914;13.858;2023-06-22T05:21:00;98210.75;;;25.48;94.08
36190;BME280;22232;50.914;13.858;2023-06-22T05:23:28;98209.47;;;25.54;92.64
36190;BME280;22232;50.914;13.858;2023-06-22T05:25:55;98203.69;;;25.64;92.98
36190;BME280;22232;50.914;13.858;2023-06-22T05:28:25;98200.81;;;25.70;94.43
36190;BME280;22232;50.914;13.858;2023-06-22T05:30:53;98203.53;;;25.61;97.38
36190;BME280;22232;50.914;13.858;2023-06-22T05:33:21;98212.53;;;25.61;93.19
36190;BME280;22232;50.914;13.858;2023-06-22T05:35:48;98209.63;;;25.58;100.00
36190;BME280;22232;50.914;13.858;2023-06-22T05:38:16;98210.91;;;25.03;100.00
36190;BME280;22232;50.914;13.858;2023-06-22T05:40:43;98193.88;;;25.55;100.00
36190;BME280;22232;50.914;13.858;2023-06-22T05:45:45;98187.81;;;26.10;100.00
36190;BME280;22232;50.914;13.858;2023-06-22T05:48:13;98194.69;;;26.42;93.96
36190;BME280;22232;50.914;13.858;2023-06-22T05:50:42;98198.06;;;26.95;88.72
36190;BME280;22232;50.914;13.858;2023-06-22T05:53:09;98197.38;;;27.07;86.17
36190;BME280;22232;50.914;13.858;2023-06-22T05:55:37;98184.69;;;27.32;86.78
36190;BME280;22232;50.914;13.858;2023-06-22T05:58:04;98197.41;;;27.36;81.26
36190;BME280;22232;50.914;13.858;2023-06-22T06:00:32;98182.75;;;27.03;84.64
36190;BME280;22232;50.914;13.858;2023-06-22T06:03:00;98184.31;;;27.42;86.08
36190;BME280;22232;50.914;13.858;2023-06-22T06:05:32;98191.66;;;27.50;79.22
36190;BME280;22232;50.914;13.858;2023-06-22T06:08:01;98190.75;;;27.67;76.93
36190;BME280;22232;50.914;13.858;2023-06-22T06:10:29;98178.94;;;27.54;79.48
36190;BME280;22232;50.914;13.858;2023-06-22T06:13:00;98176.03;;;26.91;87.24
36190;BME280;22232;50.914;13.858;2023-06-22T06:15:30;98183.75;;;26.51;90.51
36190;BME280;22232;50.914;13.858;2023-06-22T06:17:58;98178.34;;;26.72;87.74
36190;BME280;22232;50.914;13.858;2023-06-22T06:20:26;98177.78;;;26.96;88.90
36190;BME280;22232;50.914;13.858;2023-06-22T06:22:57;98170.28;;;26.84;88.74
36190;BME280;22232;50.914;13.858;2023-06-22T06:25:25;98160.69;;;26.69;86.35
36190;BME280;22232;50.914;13.858;2023-06-22T06:27:53;98162.41;;;26.74;88.19
36190;BME280;22232;50.914;13.858;2023-06-22T06:30:22;98153.28;;;26.70;94.68
36190;BME280;22232;50.914;13.858;2023-06-22T06:32:50;98143.94;;;27.00;90.35
36190;BME280;22232;50.914;13.858;2023-06-22T06:35:18;98135.56;;;27.06;84.72
36190;BME280;22232;50.914;13.858;2023-06-22T06:37:48;98114.63;;;27.31;85.94
36190;BME280;22232;50.914;13.858;2023-06-22T06:40:17;98090.00;;;27.01;80.78
36190;BME280;22232;50.914;13.858;2023-06-22T06:42:46;98057.72;;;26.18;91.31
36190;BME280;22232;50.914;13.858;2023-06-22T06:45:19;98062.44;;;25.74;99.75
36190;BME280;22232;50.914;13.858;2023-06-22T06:47:47;98086.53;;;25.80;94.83
36190;BME280;22232;50.914;13.858;2023-06-22T06:50:15;98097.97;;;25.48;100.00
36190;BME280;22232;50.914;13.858;2023-06-22T06:52:43;98094.75;;;25.46;99.53
36190;BME280;22232;50.914;13.858;2023-06-22T06:55:11;98093.31;;;25.48;98.73
36190;BME280;22232;50.914;13.858;2023-06-22T06:57:40;98081.22;;;26.01;93.28
36190;BME280;22232;50.914;13.858;2023-06-22T07:00:11;98087.28;;;26.16;93.00
36190;BME280;22232;50.914;13.858;2023-06-22T07:02:42;98084.72;;;26.11;93.89
36190;BME280;22232;50.914;13.858;2023-06-22T07:05:12;98080.16;;;26.79;88.92
36190;BME280;22232;50.914;13.858;2023-06-22T07:07:40;98084.31;;;27.15;86.31
36190;BME280;22232;50.914;13.858;2023-06-22T07:10:09;98082.69;;;27.56;86.20
36190;BME280;22232;50.914;13.858;2023-06-22T07:12:37;98088.25;;;27.47;81.69
36190;BME280;22232;50.914;13.858;2023-06-22T07:15:09;98078.91;;;27.48;87.84
36190;BME280;22232;50.914;13.858;2023-06-22T07:17:37;98082.94;;;27.84;79.00
36190;BME280;22232;50.914;13.858;2023-06-22T07:20:05;98086.50;;;27.42;81.46
36190;BME280;22232;50.914;13.858;2023-06-22T07:22:38;98084.56;;;27.43;92.07
36190;BME280;22232;50.914;13.858;2023-06-22T07:25:07;98086.09;;;27.53;83.72
36190;BME280;22232;50.914;13.858;2023-06-22T07:28:06;98091.72;;;26.85;88.54
36190;BME280;22232;50.914;13.858;2023-06-22T07:30:34;98091.50;;;27.61;84.83
36190;BME280;22232;50.914;13.858;2023-06-22T07:33:02;98100.38;;;27.16;89.11
36190;BME280;22232;50.914;13.858;2023-06-22T07:35:36;98102.63;;;26.93;92.91
36190;BME280;22232;50.914;13.858;2023-06-22T07:38:04;98083.81;;;26.83;97.84
36190;BME280;22232;50.914;13.858;2023-06-22T07:40:32;98082.56;;;26.72;98.89
36190;BME280;22232;50.914;13.858;2023-06-22T07:43:01;98079.47;;;27.12;93.71
36190;BME280;22232;50.914;13.858;2023-06-22T07:45:29;98083.56;;;27.27;93.03
36190;BME280;22232;50.914;13.858;2023-06-22T07:47:57;98085.94;;;27.07;95.10
36190;BME280;22232;50.914;13.858;2023-06-22T07:50:24;98081.88;;;26.84;96.88
36190;BME280;22232;50.914;13.858;2023-06-22T07:52:52;98074.66;;;27.30;89.85
36190;BME280;22232;50.914;13.858;2023-06-22T07:55:20;98086.28;;;27.27;92.97
36190;BME280;22232;50.914;13.858;2023-06-22T07:57:48;98094.06;;;27.25;95.12
36190;BME280;22232;50.914;13.858;2023-06-22T08:00:19;98091.09;;;27.30;90.09
36190;BME280;22232;50.914;13.858;2023-06-22T08:02:47;98086.03;;;27.40;88.74
36190;BME280;22232;50.914;13.858;2023-06-22T08:05:15;98085.69;;;27.42;90.04
36190;BME280;22232;50.914;13.858;2023-06-22T08:08:01;98082.75;;;27.26;92.79
36190;BME280;22232;50.914;13.858;2023-06-22T08:10:29;98084.03;;;27.50;86.22
36190;BME280;22232;50.914;13.858;2023-06-22T08:12:56;98083.91;;;27.46;87.58
36190;BME280;22232;50.914;13.858;2023-06-22T08:15:26;98081.84;;;27.22;88.29
36190;BME280;22232;50.914;13.858;2023-06-22T08:17:54;98075.09;;;27.11;95.07
36190;BME280;22232;50.914;13.858;2023-06-22T08:20:22;98082.22;;;27.12;92.80
36190;BME280;22232;50.914;13.858;2023-06-22T08:22:50;98078.91;;;27.27;85.73
36190;BME280;22232;50.914;13.858;2023-06-22T08:25:17;98076.63;;;27.29;78.03
36190;BME280;22232;50.914;13.858;2023-06-22T08:27:46;98086.50;;;27.97;82.38
36190;BME280;22232;50.914;13.858;2023-06-22T08:30:17;98084.72;;;28.58;72.01
36190;BME280;22232;50.914;13.858;2023-06-22T08:32:45;98072.59;;;28.47;67.19
36190;BME280;22232;50.914;13.858;2023-06-22T08:35:13;98073.25;;;27.44;72.24
36190;BME280;22232;50.914;13.858;2023-06-22T08:37:41;98071.25;;;27.12;72.86
36190;BME280;22232;50.914;13.858;2023-06-22T08:40:09;98071.53;;;26.89;81.84
36190;BME280;22232;50.914;13.858;2023-06-22T08:42:40;98072.91;;;27.04;78.58
36190;BME280;22232;50.914;13.858;2023-06-22T08:45:09;98064.78;;;27.16;75.57
36190;BME280;22232;50.914;13.858;2023-06-22T08:47:37;98072.19;;;27.58;75.75
36190;BME280;22232;50.914;13.858;2023-06-22T08:50:06;98074.88;;;27.45;75.22
36190;BME280;22232;50.914;13.858;2023-06-22T08:52:35;98062.34;;;28.11;74.58
36190;BME280;22232;50.914;13.858;2023-06-22T08:55:04;98075.56;;;28.09;66.96
36190;BME280;22232;50.914;13.858;2023-06-22T08:57:31;98069.75;;;27.77;73.17
36190;BME280;22232;50.914;13.858;2023-06-22T09:00:00;98072.66;;;27.81;67.93
36190;BME280;22232;50.914;13.858;2023-06-22T09:02:27;98063.59;;;27.47;72.10
36190;BME280;22232;50.914;13.858;2023-06-22T09:04:59;98058.31;;;27.96;74.37
36190;BME280;22232;50.914;13.858;2023-06-22T09:07:27;98061.56;;;28.35;64.64
36190;BME280;22232;50.914;13.858;2023-06-22T09:09:55;98053.16;;;28.65;72.84
36190;BME280;22232;50.914;13.858;2023-06-22T09:12:23;98064.00;;;29.10;63.92
36190;BME280;22232;50.914;13.858;2023-06-22T09:14:53;98056.75;;;29.18;62.84
36190;BME280;22232;50.914;13.858;2023-06-22T09:17:21;98059.53;;;28.93;65.54
36190;BME280;22232;50.914;13.858;2023-06-22T09:19:49;98054.16;;;28.85;63.02
36190;BME280;22232;50.914;13.858;2023-06-22T09:22:17;98056.00;;;28.93;61.51
36190;BME280;22232;50.914;13.858;2023-06-22T09:24:45;98049.25;;;28.66;64.46
36190;BME280;22232;50.914;13.858;2023-06-22T09:27:12;98042.63;;;28.54;67.59
36190;BME280;22232;50.914;13.858;2023-06-22T09:29:40;98051.09;;;28.86;64.63
36190;BME280;22232;50.914;13.858;2023-06-22T09:32:08;98039.59;;;29.21;63.17
36190;BME280;22232;50.914;13.858;2023-06-22T09:34:36;98044.31;;;28.96;63.21
36190;BME280;22232;50.914;13.858;2023-06-22T09:37:04;98037.13;;;28.42;65.21
36190;BME280;22232;50.914;13.858;2023-06-22T09:39:31;98043.97;;;28.97;63.37
36190;BME280;22232;50.914;13.858;2023-06-22T09:41:59;98036.19;;;29.52;66.81
36190;BME280;22232;50.914;13.858;2023-06-22T09:44:27;98042.25;;;30.02;59.93
36190;BME280;22232;50.914;13.858;2023-06-22T09:46:55;98048.16;;;29.88;58.63
36190;BME280;22232;50.914;13.858;2023-06-22T09:49:22;98042.78;;;30.07;56.31
36190;BME280;22232;50.914;13.858;2023-06-22T09:52:08;98043.22;;;30.09;56.56
36190;BME280;22232;50.914;13.858;2023-06-22T09:54:35;98033.56;;;29.43;58.92
36190;BME280;22232;50.914;13.858;2023-06-22T09:57:03;98035.88;;;29.41;60.40
36190;BME280;22232;50.914;13.858;2023-06-22T09:59:31;98033.91;;;29.42;63.04
36190;BME280;22232;50.914;13.858;2023-06-22T10:01:58;98042.47;;;29.12;60.35
36190;BME280;22232;50.914;13.858;2023-06-22T10:04:26;98033.22;;;28.92;61.38
36190;BME280;22232;50.914;13.858;2023-06-22T10:06:54;98033.16;;;28.64;64.63
36190;BME280;22232;50.914;13.858;2023-06-22T10:09:22;98028.22;;;28.70;64.83
36190;BME280;22232;50.914;13.858;2023-06-22T10:11:50;98032.75;;;29.43;64.31
36190;BME280;22232;50.914;13.858;2023-06-22T10:14:18;98027.09;;;30.24;62.77
36190;BME280;22232;50.914;13.858;2023-06-22T10:16:46;98022.91;;;30.46;59.72
36190;BME280;22232;50.914;13.858;2023-06-22T10:19:13;98022.78;;;29.79;61.91
36190;BME280;22232;50.914;13.858;2023-06-22T10:21:41;98022.16;;;29.85;62.53
36190;BME280;22232;50.914;13.858;2023-06-22T10:24:09;98023.06;;;29.89;61.83
36190;BME280;22232;50.914;13.858;2023-06-22T10:26:36;98012.84;;;29.06;64.43
36190;BME280;22232;50.914;13.858;2023-06-22T11:21:23;97971.28;;;30.23;62.70
36190;BME280;22232;50.914;13.858;2023-06-22T11:23:51;97976.69;;;30.71;58.69
36190;BME280;22232;50.914;13.858;2023-06-22T11:26:18;97972.13;;;31.33;52.79
36190;BME280;22232;50.914;13.858;2023-06-22T11:28:46;97965.84;;;31.75;52.02
36190;BME280;22232;50.914;13.858;2023-06-22T11:31:14;97959.66;;;31.82;51.04
36190;BME280;22232;50.914;13.858;2023-06-22T11:33:53;97967.28;;;30.72;53.17
36190;BME280;22232;50.914;13.858;2023-06-22T11:36:21;97954.66;;;30.20;58.23
36190;BME280;22232;50.914;13.858;2023-06-22T11:38:48;97950.66;;;30.49;57.13
36190;BME280;22232;50.914;13.858;2023-06-22T11:41:16;97954.53;;;30.28;57.91
36190;BME280;22232;50.914;13.858;2023-06-22T11:43:44;97945.66;;;30.54;54.39
36190;BME280;22232;50.914;13.858;2023-06-22T11:46:12;97946.53;;;30.58;54.83
36190;BME280;22232;50.914;13.858;2023-06-22T11:48:39;97949.34;;;30.27;56.68
36190;BME280;22232;50.914;13.858;2023-06-22T11:51:07;97946.88;;;30.37;55.95
36190;BME280;22232;50.914;13.858;2023-06-22T11:53:35;97941.75;;;31.10;56.84
36190;BME280;22232;50.914;13.858;2023-06-22T11:56:03;97945.44;;;31.37;52.27
36190;BME280;22232;50.914;13.858;2023-06-22T11:58:30;97938.50;;;31.04;53.65
36190;BME280;22232;50.914;13.858;2023-06-22T12:00:58;97941.91;;;31.17;52.43
36190;BME280;22232;50.914;13.858;2023-06-22T12:03:26;97937.56;;;31.36;51.89
36190;BME280;22232;50.914;13.858;2023-06-22T12:05:53;97936.97;;;31.26;54.16
36190;BME280;22232;50.914;13.858;2023-06-22T12:08:21;97925.38;;;30.78;54.65
36190;BME280;22232;50.914;13.858;2023-06-22T12:10:49;97915.78;;;30.37;57.89
36190;BME280;22232;50.914;13.858;2023-06-22T12:13:17;97912.97;;;30.02;59.75
36190;BME280;22232;50.914;13.858;2023-06-22T12:15:45;97914.75;;;29.62;58.86
36190;BME280;22232;50.914;13.858;2023-06-22T12:18:12;97917.25;;;29.83;58.37
36190;BME280;22232;50.914;13.858;2023-06-22T12:20:42;97919.72;;;29.72;56.79
36190;BME280;22232;50.914;13.858;2023-06-22T12:23:10;97914.94;;;30.01;58.42
36190;BME280;22232;50.914;13.858;2023-06-22T12:25:37;97914.22;;;29.72;59.24
36190;BME280;22232;50.914;13.858;2023-06-22T12:28:05;97915.22;;;28.80;63.57
36190;BME280;22232;50.914;13.858;2023-06-22T12:30:33;97909.06;;;28.99;63.13
36190;BME280;22232;50.914;13.858;2023-06-22T12:33:01;97907.44;;;29.54;59.91
36190;BME280;22232;50.914;13.858;2023-06-22T12:35:28;97900.38;;;30.01;59.65
36190;BME280;22232;50.914;13.858;2023-06-22T12:37:56;97895.00;;;30.39;59.52
36190;BME280;22232;50.914;13.858;2023-06-22T12:40:24;97885.22;;;30.97;56.08
36190;BME280;22232;50.914;13.858;2023-06-22T12:42:52;97895.91;;;30.44;57.78
36190;BME280;22232;50.914;13.858;2023-06-22T12:45:19;97888.81;;;30.62;57.39
36190;BME280;22232;50.914;13.858;2023-06-22T12:47:49;97888.25;;;30.92;55.56
36190;BME280;22232;50.914;13.858;2023-06-22T12:50:17;97881.41;;;31.24;54.35
36190;BME280;22232;50.914;13.858;2023-06-22T12:52:45;97874.50;;;30.92;55.44
36190;BME280;22232;50.914;13.858;2023-06-22T12:55:13;97879.69;;;30.77;57.48
36190;BME280;22232;50.914;13.858;2023-06-22T12:57:40;97874.44;;;31.30;53.72
36190;BME280;22232;50.914;13.858;2023-06-22T13:00:08;97879.59;;;31.32;51.51
36190;BME280;22232;50.914;13.858;2023-06-22T13:02:37;97873.50;;;31.65;52.05
36190;BME280;22232;50.914;13.858;2023-06-22T13:05:05;97869.66;;;31.93;51.82
36190;BME280;22232;50.914;13.858;2023-06-22T13:07:33;97862.97;;;31.94;50.49
36190;BME280;22232;50.914;13.858;2023-06-22T13:10:01;97869.31;;;32.25;49.68
36190;BME280;22232;50.914;13.858;2023-06-22T13:12:28;97862.38;;;31.85;50.70
36190;BME280;22232;50.914;13.858;2023-06-22T13:14:56;97858.63;;;31.27;52.15
36190;BME280;22232;50.914;13.858;2023-06-22T13:17:23;97861.72;;;30.45;54.34
36190;BME280;22232;50.914;13.858;2023-06-22T13:19:51;97862.66;;;30.17;58.24
36190;BME280;22232;50.914;13.858;2023-06-22T13:22:32;97859.44;;;30.31;57.39
36190;BME280;22232;50.914;13.858;2023-06-22T13:25:01;97847.81;;;30.57;53.85
36190;BME280;22232;50.914;13.858;2023-06-22T13:27:29;97856.47;;;30.39;55.22
36190;BME280;22232;50.914;13.858;2023-06-22T13:29:57;97858.22;;;30.67;56.00
36190;BME280;22232;50.914;13.858;2023-06-22T13:32:24;97850.75;;;31.26;52.15
36190;BME280;22232;50.914;13.858;2023-06-22T13:34:53;97854.06;;;31.58;50.80
36190;BME280;22232;50.914;13.858;2023-06-22T13:37:21;97853.59;;;31.52;49.73
36190;BME280;22232;50.914;13.858;2023-06-22T13:39:48;97843.50;;;31.60;51.29
36190;BME280;22232;50.914;13.858;2023-06-22T13:42:16;97839.06;;;31.79;51.07
36190;BME280;22232;50.914;13.858;2023-06-22T13:44:44;97830.28;;;32.53;49.18
36190;BME280;22232;50.914;13.858;2023-06-22T13:47:11;97823.91;;;32.79;47.90
36190;BME280;22232;50.914;13.858;2023-06-22T13:53:52;97809.66;;;32.16;46.95
36190;BME280;22232;50.914;13.858;2023-06-22T13:56:20;97800.00;;;31.99;49.86
36190;BME280;22232;50.914;13.858;2023-06-22T13:58:49;97800.81;;;32.04;49.93